createdAt,value
2023-02-23T00:01:51.474Z,29.17
2023-02-23T00:04:18.762Z,27.67
2023-02-23T00:06:45.533Z,26.48
2023-02-23T00:09:22.797Z,27.00
2023-02-23T00:11:57.211Z,25.45
2023-02-23T00:14:28.717Z,27.05
2023-02-23T00:16:56.342Z,24.00
2023-02-23T00:19:27.834Z,27.50
2023-02-23T00:21:54.889Z,24.00
2023-02-23T00:24:22.023Z,25.33
2023-02-23T00:26:51.257Z,24.65
2023-02-23T00:29:20.957Z,22.55
2023-02-23T00:31:49.259Z,22.52
2023-02-23T00:34:20.933Z,23.42
2023-02-23T00:36:55.142Z,21.40
2023-02-23T00:39:26.365Z,21.58
2023-02-23T00:41:55.232Z,22.27
2023-02-23T00:44:23.573Z,22.83
2023-02-23T00:46:51.923Z,24.67
2023-02-23T00:49:20.579Z,21.35
2023-02-23T00:51:47.658Z,23.58
2023-02-23T00:54:15.513Z,23.33
2023-02-23T00:56:42.150Z,24.02
2023-02-23T00:59:09.486Z,27.27
2023-02-23T01:01:37.564Z,23.63
2023-02-23T01:04:04.722Z,23.73
2023-02-23T01:06:31.205Z,22.30
2023-02-23T01:08:57.814Z,24.98
2023-02-23T01:11:30.943Z,23.17
2023-02-23T01:13:59.006Z,22.95
2023-02-23T01:16:29.346Z,21.90
2023-02-23T01:18:58.913Z,24.58
2023-02-23T01:21:28.594Z,23.15
2023-02-23T01:23:56.030Z,21.77
2023-02-23T01:26:34.143Z,22.17
2023-02-23T01:29:21.108Z,20.58
2023-02-23T01:31:51.175Z,20.92
2023-02-23T01:34:19.583Z,21.95
2023-02-23T01:36:46.093Z,19.83
2023-02-23T01:39:15.819Z,21.83
2023-02-23T01:41:42.564Z,21.80
2023-02-23T01:44:15.057Z,22.60
2023-02-23T01:46:46.303Z,20.88
2023-02-23T01:49:26.045Z,20.75
2023-02-23T01:52:00.649Z,20.52
2023-02-23T01:54:32.106Z,19.42
2023-02-23T01:57:01.445Z,19.70
2023-02-23T01:59:37.345Z,19.67
2023-02-23T02:02:05.275Z,19.05
2023-02-23T02:04:43.808Z,20.02
2023-02-23T02:07:17.652Z,19.90
2023-02-23T02:10:09.706Z,18.83
2023-02-23T02:12:45.326Z,22.58
2023-02-23T02:15:17.440Z,21.83
2023-02-23T02:18:09.397Z,23.65
2023-02-23T02:21:04.900Z,19.55
2023-02-23T02:23:58.734Z,19.83
2023-02-23T02:26:53.533Z,18.73
2023-02-23T02:29:56.052Z,18.10
2023-02-23T02:32:55.331Z,18.10
2023-02-23T02:35:38.092Z,14.40
2023-02-23T02:38:37.593Z,17.70
2023-02-23T02:41:22.882Z,18.02
2023-02-23T02:44:11.531Z,16.65
2023-02-23T02:46:48.010Z,15.93
2023-02-23T02:49:26.681Z,18.35
2023-02-23T02:52:00.891Z,14.02
2023-02-23T02:54:39.481Z,15.13
2023-02-23T02:57:07.696Z,14.88
2023-02-23T03:00:05.215Z,15.85
2023-02-23T03:02:52.318Z,18.38
2023-02-23T03:05:40.079Z,17.33
2023-02-23T03:09:03.850Z,17.20
2023-02-23T03:12:20.675Z,15.07
2023-02-23T03:15:32.571Z,15.23
2023-02-23T03:18:33.913Z,14.95
2023-02-23T03:21:27.070Z,15.38
2023-02-23T03:24:23.908Z,17.58
2023-02-23T03:27:17.027Z,16.02
2023-02-23T03:30:11.274Z,15.60
2023-02-23T03:33:06.993Z,15.85
2023-02-23T03:36:06.914Z,18.70
2023-02-23T03:39:06.256Z,15.02
2023-02-23T03:41:53.172Z,16.08
2023-02-23T03:44:43.985Z,15.57
2023-02-23T03:47:31.850Z,15.32
2023-02-23T03:50:21.565Z,16.33
2023-02-23T03:53:14.979Z,16.20
2023-02-23T03:56:05.871Z,16.02
2023-02-23T03:58:57.130Z,16.52
2023-02-23T04:01:45.636Z,18.50
2023-02-23T04:04:30.969Z,16.20
2023-02-23T04:07:19.957Z,16.50
2023-02-23T04:10:05.275Z,15.85
2023-02-23T04:13:10.742Z,17.38
2023-02-23T04:15:41.085Z,17.08
2023-02-23T04:18:13.208Z,18.70
2023-02-23T04:20:39.959Z,16.60
2023-02-23T04:23:06.484Z,20.23
2023-02-23T04:25:32.972Z,17.67
2023-02-23T04:27:59.515Z,19.02
2023-02-23T04:30:28.440Z,21.63
2023-02-23T04:32:55.457Z,19.55
2023-02-23T04:35:22.553Z,22.02
2023-02-23T04:37:49.067Z,20.25
2023-02-23T04:40:15.681Z,20.30
2023-02-23T04:42:42.372Z,21.65
2023-02-23T04:45:09.715Z,21.67
2023-02-23T04:47:36.544Z,21.85
2023-02-23T04:50:03.418Z,23.42
2023-02-23T04:52:29.906Z,22.75
2023-02-23T04:54:56.390Z,25.42
2023-02-23T04:57:22.903Z,25.30
2023-02-23T04:59:49.380Z,25.33
2023-02-23T05:02:15.954Z,25.95
2023-02-23T05:04:42.464Z,25.23
2023-02-23T05:07:08.971Z,23.08
2023-02-23T05:09:35.509Z,27.48
2023-02-23T05:12:02.210Z,26.13
2023-02-23T05:14:28.682Z,28.52
2023-02-23T05:16:55.248Z,26.50
2023-02-23T05:19:21.779Z,26.70
2023-02-23T05:21:50.401Z,29.02
2023-02-23T05:24:18.235Z,29.20
2023-02-23T05:26:45.133Z,24.50
2023-02-23T05:29:12.388Z,28.05
2023-02-23T05:31:39.037Z,29.25
2023-02-23T05:34:05.603Z,24.98
2023-02-23T05:36:32.278Z,27.30
2023-02-23T05:38:58.790Z,25.63
2023-02-23T05:41:25.224Z,24.08
2023-02-23T05:43:52.636Z,24.30
2023-02-23T05:46:22.385Z,26.27
2023-02-23T05:48:49.020Z,28.50
2023-02-23T05:51:17.124Z,33.88
2023-02-23T05:53:44.948Z,28.27
2023-02-23T05:56:14.166Z,28.02
2023-02-23T05:58:40.675Z,24.95
2023-02-23T06:01:07.213Z,29.23
2023-02-23T06:03:34.222Z,25.83
2023-02-23T06:06:00.789Z,31.48
2023-02-23T06:08:27.496Z,29.67
2023-02-23T06:10:54.005Z,26.23
2023-02-23T06:13:21.298Z,26.13
2023-02-23T06:15:49.490Z,26.52
2023-02-23T06:18:17.669Z,28.10
2023-02-23T06:20:45.854Z,29.00
2023-02-23T06:23:13.384Z,25.90
2023-02-23T06:25:41.037Z,28.73
2023-02-23T06:28:08.859Z,33.30
2023-02-23T06:30:36.258Z,30.00
2023-02-23T06:33:03.141Z,30.55
2023-02-23T06:35:30.586Z,30.55
2023-02-23T06:37:57.218Z,29.27
2023-02-23T06:40:24.262Z,31.98
2023-02-23T06:42:51.207Z,29.83
2023-02-23T06:45:19.220Z,30.48
2023-02-23T06:47:47.130Z,28.30
2023-02-23T06:50:14.908Z,30.15
2023-02-23T06:52:41.891Z,32.78
2023-02-23T06:55:09.837Z,30.20
2023-02-23T06:57:36.507Z,27.73
2023-02-23T07:00:04.817Z,34.25
2023-02-23T07:02:31.762Z,35.47
2023-02-23T07:04:58.921Z,35.72
2023-02-23T07:07:25.564Z,35.85
2023-02-23T07:09:52.124Z,36.08
2023-02-23T07:12:18.753Z,32.00
2023-02-23T07:14:45.278Z,33.85
2023-02-23T07:17:12.717Z,31.13
2023-02-23T07:19:39.404Z,29.52
2023-02-23T07:22:05.998Z,30.58
2023-02-23T07:24:32.539Z,38.03
2023-02-23T07:26:59.282Z,36.35
2023-02-23T07:29:27.681Z,42.83
2023-02-23T07:31:54.845Z,35.38
2023-02-23T07:34:21.669Z,35.00
2023-02-23T07:36:48.295Z,33.33
2023-02-23T07:39:17.494Z,31.70
2023-02-23T07:41:44.157Z,37.58
2023-02-23T07:44:18.382Z,34.65
2023-02-23T07:46:49.408Z,35.20
2023-02-23T07:49:16.005Z,35.28
2023-02-23T07:51:42.796Z,35.90
2023-02-23T07:54:09.339Z,36.40
2023-02-23T07:56:35.855Z,39.78
2023-02-23T07:59:02.704Z,38.05
2023-02-23T08:01:29.323Z,39.72
2023-02-23T08:03:55.836Z,39.42
2023-02-23T08:06:22.434Z,40.60
2023-02-23T08:08:49.168Z,39.25
2023-02-23T08:11:15.817Z,40.38
2023-02-23T08:13:42.434Z,41.63
2023-02-23T08:16:09.061Z,40.85
2023-02-23T08:18:35.659Z,48.72
2023-02-23T08:21:03.893Z,42.88
2023-02-23T08:23:34.445Z,41.17
2023-02-23T08:26:02.184Z,43.35
2023-02-23T08:28:29.651Z,37.80
2023-02-23T08:30:56.331Z,40.58
2023-02-23T08:33:23.216Z,41.92
2023-02-23T08:35:49.704Z,43.28
2023-02-23T08:38:18.237Z,35.55
2023-02-23T08:40:45.149Z,36.78
2023-02-23T08:43:11.761Z,41.47
2023-02-23T08:45:39.583Z,36.75
2023-02-23T08:48:09.315Z,41.88
2023-02-23T08:50:36.955Z,39.40
2023-02-23T08:53:06.732Z,37.85
2023-02-23T08:55:36.445Z,39.15
2023-02-23T08:58:03.661Z,42.55
2023-02-23T09:00:31.822Z,36.28
2023-02-23T09:03:01.863Z,35.17
2023-02-23T09:05:40.386Z,38.75
2023-02-23T09:08:07.440Z,37.65
2023-02-23T09:10:34.772Z,38.63
2023-02-23T09:13:02.777Z,35.58
2023-02-23T09:15:29.314Z,37.83
2023-02-23T09:18:00.697Z,40.55
2023-02-23T09:20:27.255Z,37.75
2023-02-23T09:22:53.815Z,38.97
2023-02-23T09:25:22.856Z,35.00
2023-02-23T09:27:51.375Z,38.30
2023-02-23T09:30:20.691Z,36.53
2023-02-23T09:32:48.352Z,34.72
2023-02-23T09:35:17.779Z,32.58
2023-02-23T09:37:48.675Z,36.15
2023-02-23T09:40:24.858Z,32.53
2023-02-23T09:43:12.488Z,38.45
2023-02-23T09:45:43.479Z,34.25
2023-02-23T09:48:16.484Z,37.92
2023-02-23T09:50:47.638Z,32.80
2023-02-23T09:53:23.237Z,35.50
2023-02-23T09:55:53.746Z,37.42
2023-02-23T09:58:29.189Z,38.20
2023-02-23T10:01:14.007Z,37.45
2023-02-23T10:03:50.280Z,37.25
2023-02-23T10:06:18.195Z,37.85
2023-02-23T10:08:59.018Z,39.60
2023-02-23T10:11:41.941Z,34.72
2023-02-23T10:14:45.856Z,38.00
2023-02-23T10:17:17.993Z,36.38
2023-02-23T10:19:57.409Z,36.20
2023-02-23T10:22:25.714Z,35.00
2023-02-23T10:24:52.358Z,34.38
2023-02-23T10:27:21.443Z,36.65
2023-02-23T10:29:51.519Z,35.58
2023-02-23T10:32:45.673Z,38.83
2023-02-23T10:35:15.928Z,35.17
2023-02-23T10:37:42.464Z,37.80
2023-02-23T10:40:17.332Z,35.15
2023-02-23T10:42:43.871Z,31.40
2023-02-23T10:45:19.680Z,33.35
2023-02-23T10:47:47.511Z,31.05
2023-02-23T10:50:15.005Z,29.98
2023-02-23T10:52:44.783Z,37.70
2023-02-23T10:55:45.553Z,31.73
2023-02-23T10:58:19.211Z,28.55
2023-02-23T11:01:03.764Z,29.90
2023-02-23T11:03:43.311Z,34.55
2023-02-23T11:06:32.419Z,31.25
2023-02-23T11:08:59.023Z,31.48
2023-02-23T11:11:28.822Z,29.95
2023-02-23T11:13:57.509Z,30.15
2023-02-23T11:16:30.443Z,32.42
2023-02-23T11:19:03.390Z,30.23
2023-02-23T11:21:33.811Z,28.43
2023-02-23T11:24:19.279Z,28.30
2023-02-23T11:26:48.458Z,27.83
2023-02-23T11:29:35.149Z,30.17
2023-02-23T11:32:19.617Z,34.10
2023-02-23T11:34:50.943Z,30.92
2023-02-23T11:37:17.364Z,34.55
2023-02-23T11:39:57.424Z,41.45
2023-02-23T11:42:34.552Z,29.90
2023-02-23T11:45:16.243Z,30.70
2023-02-23T11:47:58.642Z,35.92
2023-02-23T11:50:27.663Z,33.00
2023-02-23T11:53:05.443Z,35.55
2023-02-23T11:55:36.588Z,31.58
2023-02-23T11:58:27.852Z,31.40
2023-02-23T12:00:59.795Z,35.78
2023-02-23T12:03:29.007Z,31.15
2023-02-23T12:05:59.826Z,33.58
2023-02-23T12:08:33.667Z,32.25
2023-02-23T12:13:37.904Z,33.53
2023-02-23T12:16:10.596Z,32.30
2023-02-23T12:18:41.912Z,34.13
2023-02-23T12:21:38.117Z,32.67
2023-02-23T12:24:10.758Z,25.15
2023-02-23T12:26:47.048Z,28.98
2023-02-23T12:29:23.221Z,26.02
2023-02-23T12:31:57.763Z,22.45
2023-02-23T12:34:35.827Z,21.65
2023-02-23T12:37:16.981Z,26.35
2023-02-23T12:39:47.052Z,27.17
2023-02-23T12:42:17.960Z,28.73
2023-02-23T12:44:53.496Z,28.33
2023-02-23T12:47:37.131Z,26.85
2023-02-23T12:50:14.036Z,21.48
2023-02-23T12:53:02.541Z,19.08
2023-02-23T12:55:40.046Z,16.98
2023-02-23T12:58:28.462Z,15.18
2023-02-23T13:01:05.970Z,19.55
2023-02-23T13:03:49.658Z,19.45
2023-02-23T13:06:21.294Z,19.30
2023-02-23T13:09:15.534Z,17.67
2023-02-23T13:12:00.178Z,21.95
2023-02-23T13:14:30.795Z,19.67
2023-02-23T13:17:03.083Z,22.20
2023-02-23T13:19:39.220Z,17.92
2023-02-23T13:22:24.462Z,16.70
2023-02-23T13:24:53.682Z,24.70
2023-02-23T13:27:25.199Z,26.25
2023-02-23T13:29:54.936Z,20.50
2023-02-23T13:32:24.523Z,14.55
2023-02-23T13:35:00.744Z,17.27
2023-02-23T13:37:47.961Z,14.82
2023-02-23T13:40:45.434Z,15.38
2023-02-23T13:43:30.141Z,15.82
2023-02-23T13:46:26.135Z,16.77
2023-02-23T13:49:21.696Z,13.63
2023-02-23T13:51:54.929Z,13.25
2023-02-23T13:54:24.951Z,12.73
2023-02-23T13:56:56.336Z,14.52
2023-02-23T13:59:29.258Z,12.85
2023-02-23T14:01:57.333Z,16.40
2023-02-23T14:04:34.159Z,14.55
2023-02-23T14:07:16.704Z,23.13
2023-02-23T14:09:56.533Z,31.00
2023-02-23T14:12:32.591Z,22.08
2023-02-23T14:15:28.444Z,31.02
2023-02-23T14:18:00.322Z,38.40
2023-02-23T14:20:38.740Z,16.60
2023-02-23T14:23:18.386Z,17.08
2023-02-23T14:25:50.589Z,17.13
2023-02-23T14:28:30.674Z,21.98
2023-02-23T14:31:11.225Z,19.80
2023-02-23T14:33:51.462Z,16.45
2023-02-23T14:36:23.918Z,14.50
2023-02-23T14:38:56.780Z,15.68
2023-02-23T14:41:26.574Z,13.73
2023-02-23T14:44:10.619Z,11.52
2023-02-23T14:47:14.320Z,11.05
2023-02-23T14:49:47.064Z,10.88
2023-02-23T14:52:40.877Z,9.73
2023-02-23T14:55:29.076Z,9.88
2023-02-23T14:57:57.941Z,9.55
2023-02-23T15:00:32.482Z,11.70
2023-02-23T15:03:12.740Z,11.23
2023-02-23T15:05:45.040Z,11.07
2023-02-23T15:08:21.528Z,10.73
2023-02-23T15:10:51.361Z,9.68
2023-02-23T15:13:29.964Z,10.93
2023-02-23T15:16:18.275Z,9.73
2023-02-23T15:19:32.137Z,8.48
2023-02-23T15:22:00.642Z,10.95
2023-02-23T15:24:32.440Z,14.18
2023-02-23T15:26:59.916Z,10.38
2023-02-23T15:29:33.580Z,9.25
2023-02-23T15:32:18.899Z,9.85
2023-02-23T15:34:45.875Z,11.85
2023-02-23T15:37:19.933Z,10.35
2023-02-23T15:39:52.891Z,9.60
2023-02-23T15:42:28.849Z,10.47
2023-02-23T15:44:58.263Z,9.15
2023-02-23T15:47:28.955Z,9.65
2023-02-23T15:50:05.503Z,9.55
2023-02-23T15:52:35.093Z,9.13
2023-02-23T15:55:07.805Z,11.38
2023-02-23T15:57:47.314Z,9.23
2023-02-23T16:00:37.986Z,11.30
2023-02-23T16:03:06.530Z,9.68
2023-02-23T16:05:46.602Z,8.80
2023-02-23T16:08:23.316Z,9.60
2023-02-23T16:10:55.036Z,10.95
2023-02-23T16:13:22.504Z,9.75
2023-02-23T16:15:50.036Z,6.93
2023-02-23T16:18:20.062Z,10.05
2023-02-23T16:20:55.912Z,7.63
2023-02-23T16:23:36.063Z,8.48
2023-02-23T16:26:12.856Z,7.85
2023-02-23T16:28:43.466Z,8.32
2023-02-23T16:31:13.288Z,8.80
2023-02-23T16:33:54.495Z,7.95
2023-02-23T16:36:33.345Z,7.10
2023-02-23T16:39:06.977Z,6.95
2023-02-23T16:41:34.623Z,7.88
2023-02-23T16:44:03.644Z,6.10
2023-02-23T16:46:33.423Z,12.45
2023-02-23T16:49:05.157Z,8.10
2023-02-23T16:51:34.724Z,6.65
2023-02-23T16:54:04.202Z,7.07
2023-02-23T16:56:31.205Z,8.07
2023-02-23T16:59:02.991Z,6.80
2023-02-23T17:01:29.570Z,8.30
2023-02-23T17:03:56.268Z,6.63
2023-02-23T17:06:23.313Z,10.15
2023-02-23T17:08:58.485Z,9.40
2023-02-23T17:11:25.913Z,7.18
2023-02-23T17:13:52.657Z,9.25
2023-02-23T17:16:19.838Z,8.10
2023-02-23T17:18:46.667Z,5.88
2023-02-23T17:21:14.534Z,7.57
2023-02-23T17:23:51.356Z,7.93
2023-02-23T17:26:22.061Z,7.32
2023-02-23T17:28:48.759Z,10.20
2023-02-23T17:31:17.529Z,8.95
2023-02-23T17:33:44.871Z,8.05
2023-02-23T17:36:14.766Z,9.90
2023-02-23T17:38:44.079Z,7.70
2023-02-23T17:41:17.626Z,8.65
2023-02-23T17:43:44.344Z,11.55
2023-02-23T17:46:11.841Z,8.05
2023-02-23T17:48:40.577Z,8.40
2023-02-23T17:51:10.183Z,8.60
2023-02-23T17:53:36.792Z,7.82
2023-02-23T17:56:04.115Z,7.70
2023-02-23T17:58:31.016Z,10.27
2023-02-23T18:01:00.012Z,6.50
2023-02-23T18:03:34.607Z,7.15
2023-02-23T18:06:01.716Z,8.52
2023-02-23T18:08:28.359Z,6.60
2023-02-23T18:10:55.425Z,10.82
2023-02-23T18:13:22.958Z,8.45
2023-02-23T18:15:50.923Z,10.20
2023-02-23T18:18:17.628Z,9.07
2023-02-23T18:20:54.814Z,6.65
2023-02-23T18:23:23.091Z,7.75
2023-02-23T18:25:49.867Z,7.38
2023-02-23T18:28:17.483Z,8.00
2023-02-23T18:30:44.752Z,10.63
2023-02-23T18:33:12.316Z,8.93
2023-02-23T18:35:44.957Z,9.77
2023-02-23T18:38:13.966Z,5.85
2023-02-23T18:40:40.911Z,9.30
2023-02-23T18:43:08.598Z,11.73
2023-02-23T18:45:35.287Z,7.95
2023-02-23T18:48:01.908Z,9.48
2023-02-23T18:50:28.582Z,13.70
2023-02-23T18:52:56.553Z,12.57
2023-02-23T18:55:23.798Z,30.55
2023-02-23T18:57:52.614Z,13.60
2023-02-23T19:00:20.304Z,12.30
2023-02-23T19:02:47.679Z,13.30
2023-02-23T19:05:15.828Z,12.40
2023-02-23T19:07:42.676Z,12.15
2023-02-23T19:10:12.175Z,11.68
2023-02-23T19:12:39.799Z,12.43
2023-02-23T19:15:08.030Z,9.98
2023-02-23T19:17:35.484Z,13.93
2023-02-23T19:20:02.025Z,12.10
2023-02-23T19:22:29.381Z,12.30
2023-02-23T19:24:55.903Z,10.57
2023-02-23T19:27:22.664Z,9.00
2023-02-23T19:29:49.368Z,9.35
2023-02-23T19:32:18.965Z,8.75
2023-02-23T19:34:48.226Z,10.10
2023-02-23T19:37:14.742Z,8.18
2023-02-23T19:39:41.429Z,10.77
2023-02-23T19:42:09.056Z,9.90
2023-02-23T19:44:35.681Z,12.20
2023-02-23T19:47:02.219Z,10.48
2023-02-23T19:49:28.669Z,12.50
2023-02-23T19:51:55.254Z,15.00
2023-02-23T19:54:21.827Z,11.95
2023-02-23T19:56:49.888Z,15.48
2023-02-23T19:59:16.493Z,15.15
2023-02-23T20:01:45.021Z,14.43
2023-02-23T20:04:11.655Z,15.05
2023-02-23T20:06:47.185Z,15.60
2023-02-23T20:09:14.211Z,17.45
2023-02-23T20:11:40.896Z,16.45
2023-02-23T20:14:08.750Z,18.65
2023-02-23T20:16:35.614Z,13.70
2023-02-23T20:19:03.560Z,18.25
2023-02-23T20:21:31.406Z,17.38
2023-02-23T20:23:58.722Z,14.77
2023-02-23T20:26:29.119Z,18.75
2023-02-23T20:28:57.293Z,17.63
2023-02-23T20:31:26.854Z,16.58
2023-02-23T20:33:56.016Z,16.73
2023-02-23T20:36:23.756Z,17.60
2023-02-23T20:38:50.638Z,18.02
2023-02-23T20:41:17.470Z,15.10
2023-02-23T20:43:44.998Z,16.77
2023-02-23T20:46:16.772Z,14.70
2023-02-23T20:48:43.856Z,17.25
2023-02-23T20:51:15.114Z,18.38
2023-02-23T20:53:45.228Z,17.40
2023-02-23T20:56:14.932Z,19.25
2023-02-23T20:58:41.508Z,19.40
2023-02-23T21:01:23.640Z,18.48
2023-02-23T21:03:52.136Z,15.95
2023-02-23T21:06:20.401Z,18.05
2023-02-23T21:08:49.023Z,17.63
2023-02-23T21:11:17.780Z,62.33
2023-02-23T21:13:44.417Z,20.65
2023-02-23T21:16:14.804Z,19.67
2023-02-23T21:18:42.700Z,20.63
2023-02-23T21:21:10.145Z,22.63
2023-02-23T21:23:38.734Z,17.73
2023-02-23T21:26:09.786Z,18.88
2023-02-23T21:28:37.655Z,19.98
2023-02-23T21:31:04.936Z,19.42
2023-02-23T21:33:31.476Z,17.48
2023-02-23T21:35:58.747Z,17.70
2023-02-23T21:38:25.735Z,18.90
2023-02-23T21:40:52.801Z,21.02
2023-02-23T21:43:19.331Z,20.63
2023-02-23T21:45:46.685Z,21.30
2023-02-23T21:48:13.616Z,20.55
2023-02-23T21:50:40.428Z,19.50
2023-02-23T21:53:09.236Z,19.67
2023-02-23T21:55:38.628Z,19.50
2023-02-23T21:58:07.080Z,17.90
2023-02-23T22:00:35.647Z,18.58
2023-02-23T22:03:03.413Z,19.08
2023-02-23T22:05:30.075Z,20.10
2023-02-23T22:07:56.750Z,17.27
2023-02-23T22:10:24.719Z,18.45
2023-02-23T22:12:55.805Z,17.25
2023-02-23T22:15:29.579Z,19.92
2023-02-23T22:17:56.698Z,22.48
2023-02-23T22:20:23.544Z,18.58
2023-02-23T22:22:53.033Z,19.48
2023-02-23T22:25:20.207Z,20.20
2023-02-23T22:27:47.440Z,20.30
2023-02-23T22:30:15.277Z,21.35
2023-02-23T22:32:42.636Z,22.10
2023-02-23T22:35:10.170Z,20.88
2023-02-23T22:37:36.904Z,18.95
2023-02-23T22:40:16.611Z,19.33
2023-02-23T22:42:48.098Z,21.38
2023-02-23T22:45:16.023Z,20.15
2023-02-23T22:47:42.758Z,21.27
2023-02-23T22:50:12.030Z,20.02
2023-02-23T22:52:38.740Z,23.10
2023-02-23T22:55:05.591Z,28.88
2023-02-23T22:57:32.108Z,23.63
2023-02-23T23:00:10.250Z,28.67
2023-02-23T23:02:36.955Z,27.58
2023-02-23T23:05:03.919Z,27.02
2023-02-23T23:07:33.715Z,26.80
2023-02-23T23:10:05.624Z,29.48
2023-02-23T23:12:34.175Z,29.35
2023-02-23T23:15:01.288Z,31.92
2023-02-23T23:17:31.394Z,29.80
2023-02-23T23:20:00.125Z,32.15
2023-02-23T23:22:27.294Z,33.45
2023-02-23T23:24:53.816Z,34.88
2023-02-23T23:27:20.772Z,32.70
2023-02-23T23:29:48.142Z,38.83
2023-02-23T23:32:19.056Z,36.92
2023-02-23T23:34:49.506Z,37.97
2023-02-23T23:37:18.600Z,36.13
2023-02-23T23:39:45.644Z,40.42
2023-02-23T23:42:12.840Z,46.60
2023-02-23T23:44:39.421Z,40.67
2023-02-23T23:47:06.290Z,41.60
2023-02-23T23:49:38.648Z,42.35
2023-02-23T23:52:05.896Z,42.47
2023-02-23T23:54:41.258Z,49.60
2023-02-23T23:57:07.949Z,43.20
2023-02-23T23:59:35.211Z,46.22
